OICI

Details ICAO OICI (IIL)
Name ILAM
Region Iran
Timezone Asia/Tehran (UTC+3.5)
Plans Departing 6
Arriving 2
Stats Elevation 4,404 ft / 1,342 m (AMSL)
Location 33.586607° 46.404781°
Runways 1
Magnetic Variation 4.550° E
Sunrise 2017-12-16 03:53:20 UTC / 2017-12-16 07:23:20 Local
Sunset 2017-12-16 13:49:21 UTC / 2017-12-16 17:19:21 Local
Advertisement - Login to hide

Runways

ID Width Length Bearing (true) Bearing (mag) Surface Threshold Offset Overrun Length
14 148 ft / 45 m 9,196 ft / 2,803 m 142.12° 137.57° Asphalt 0 ft / 0 m 0 ft / 0 m
32 148 ft / 45 m 9,196 ft / 2,803 m 322.13° 317.58° Asphalt 0 ft / 0 m 0 ft / 0 m

Map

Weather


0- 5 10 15 20 25 30 35+ Temperature / ° C

Clouds and Precipitation
Forecast for 2017-12-16 18:00 UTC. Updated 2 hours ago

Ground ~20,000 ft ~40,000 ft Winds

METAR

OICI 161500Z 31002KT CAVOK 09/01 Q1025 A3027

TAF

TAF OICI 161110Z 1612/1718 12004MPS 7000 FEW035= TAF OISL 161110Z 1612/1718 16004MPS 7000 FEW030CB SCT035 BKN100 TEMPO 1612/1618 16009MPS 3000 TSRA SCT030CB SCT035 OVC080 BECMG 1618/1620 3000 BR BECMG 1701/1703 FEW035 SCT100 BECMG 1704/1706 6000

Frequencies

Tower 121.60 MHz INFO
Tower 118.80 MHz INFO
Warning: Do not use this data for real-world aviation or navigation. No guarantee of current accuracy is given.